createdAt,value
2022-09-30T00:01:03.137Z,57.80
2022-09-30T00:02:36.991Z,58.00
2022-09-30T00:04:16.589Z,58.10
2022-09-30T00:05:55.435Z,58.30
2022-09-30T00:07:28.843Z,58.20
2022-09-30T00:09:03.355Z,58.30
2022-09-30T00:10:38.070Z,58.40
2022-09-30T00:12:11.559Z,58.40
2022-09-30T00:13:47.802Z,58.50
2022-09-30T00:15:21.358Z,58.50
2022-09-30T00:16:54.584Z,58.50
2022-09-30T00:18:28.678Z,58.50
2022-09-30T00:20:02.948Z,58.50
2022-09-30T00:21:37.211Z,58.40
2022-09-30T00:23:10.853Z,58.40
2022-09-30T00:24:44.203Z,58.40
2022-09-30T00:26:21.834Z,58.30
2022-09-30T00:27:55.402Z,58.30
2022-09-30T00:29:28.762Z,58.40
2022-09-30T00:31:05.213Z,58.30
2022-09-30T00:32:39.173Z,57.90
2022-09-30T00:34:13.126Z,58.30
2022-09-30T00:35:46.367Z,58.20
2022-09-30T00:37:19.604Z,58.20
2022-09-30T00:38:52.070Z,58.20
2022-09-30T00:40:25.266Z,58.20
2022-09-30T00:42:03.385Z,58.20
2022-09-30T00:43:43.365Z,58.20
2022-09-30T00:45:17.929Z,58.20
2022-09-30T00:46:50.461Z,58.20
2022-09-30T00:48:37.516Z,58.20
2022-09-30T00:50:22.732Z,58.80
2022-09-30T00:51:58.710Z,58.80
2022-09-30T00:53:40.356Z,58.10
2022-09-30T00:55:28.272Z,58.10
2022-09-30T00:57:08.421Z,58.10
2022-09-30T00:58:48.024Z,58.10
2022-09-30T01:00:24.226Z,58.10
2022-09-30T01:02:05.108Z,58.00
2022-09-30T01:03:46.858Z,58.10
2022-09-30T01:05:23.418Z,58.40
2022-09-30T01:07:06.869Z,58.40
2022-09-30T01:08:46.716Z,58.40
2022-09-30T01:10:22.990Z,58.40
2022-09-30T01:12:00.982Z,58.40
2022-09-30T01:13:41.160Z,58.50
2022-09-30T01:15:17.325Z,58.50
2022-09-30T01:17:09.060Z,58.50
2022-09-30T01:19:38.968Z,58.70
2022-09-30T01:21:52.254Z,59.30
2022-09-30T01:24:31.542Z,58.60
2022-09-30T01:26:36.261Z,58.80
2022-09-30T01:28:47.709Z,58.70
2022-09-30T01:30:23.227Z,58.80
2022-09-30T01:32:08.030Z,58.80
2022-09-30T01:33:53.541Z,58.90
2022-09-30T01:35:39.430Z,59.00
2022-09-30T01:37:25.690Z,58.90
2022-09-30T01:39:18.669Z,59.00
2022-09-30T01:41:06.621Z,59.00
2022-09-30T01:42:56.026Z,58.90
2022-09-30T01:44:41.446Z,58.80
2022-09-30T01:46:28.444Z,58.80
2022-09-30T01:48:12.470Z,58.70
2022-09-30T01:49:58.809Z,58.70
2022-09-30T01:51:43.106Z,58.70
2022-09-30T01:53:28.716Z,58.70
2022-09-30T01:55:09.794Z,58.70
2022-09-30T01:56:48.646Z,58.90
2022-09-30T01:58:39.723Z,59.00
2022-09-30T02:00:15.283Z,59.20
2022-09-30T02:01:57.936Z,59.20
2022-09-30T02:03:41.186Z,59.40
2022-09-30T02:05:22.915Z,59.50
2022-09-30T02:07:04.449Z,59.50
2022-09-30T02:08:46.817Z,59.40
2022-09-30T02:10:28.624Z,59.30
2022-09-30T02:12:07.966Z,59.20
2022-09-30T02:13:49.742Z,59.20
2022-09-30T02:15:29.034Z,59.00
2022-09-30T02:17:08.563Z,59.00
2022-09-30T02:18:47.404Z,59.00
2022-09-30T02:20:25.780Z,59.00
2022-09-30T02:22:06.110Z,59.00
2022-09-30T02:23:45.718Z,59.00
2022-09-30T02:25:25.973Z,59.00
2022-09-30T02:27:05.016Z,59.10
2022-09-30T02:28:45.489Z,59.10
2022-09-30T02:30:20.118Z,59.20
2022-09-30T02:31:59.197Z,59.20
2022-09-30T02:33:39.447Z,59.20
2022-09-30T02:35:23.148Z,59.20
2022-09-30T02:37:05.069Z,59.40
2022-09-30T02:38:44.954Z,59.40
2022-09-30T02:40:26.813Z,59.50
2022-09-30T02:42:09.078Z,59.50
2022-09-30T02:43:43.371Z,59.50
2022-09-30T02:45:23.454Z,59.50
2022-09-30T02:47:08.215Z,59.40
2022-09-30T02:48:49.691Z,59.30
2022-09-30T02:50:35.237Z,59.20
2022-09-30T02:52:20.889Z,59.20
2022-09-30T02:54:04.645Z,59.20
2022-09-30T02:56:00.833Z,59.40
2022-09-30T02:57:46.662Z,59.40
2022-09-30T03:01:46.102Z,59.50
2022-09-30T03:03:26.190Z,59.50
2022-09-30T03:05:00.287Z,59.50
2022-09-30T03:06:36.306Z,59.50
2022-09-30T03:08:09.858Z,59.50
2022-09-30T03:09:43.253Z,59.50
2022-09-30T03:11:20.156Z,59.60
2022-09-30T03:13:17.286Z,59.70
2022-09-30T03:15:14.353Z,59.70
2022-09-30T03:17:21.356Z,59.50
2022-09-30T03:19:25.870Z,60.20
2022-09-30T03:21:18.248Z,59.50
2022-09-30T03:23:24.481Z,59.50
2022-09-30T03:25:17.127Z,59.50
2022-09-30T03:27:06.452Z,59.50
2022-09-30T03:28:53.084Z,59.50
2022-09-30T03:30:28.515Z,59.50
2022-09-30T03:32:19.476Z,59.50
2022-09-30T03:34:03.907Z,59.50
2022-09-30T03:35:53.851Z,59.40
2022-09-30T03:37:34.171Z,59.50
2022-09-30T03:39:25.834Z,59.40
2022-09-30T03:41:08.262Z,59.40
2022-09-30T03:42:48.051Z,59.40
2022-09-30T03:44:30.654Z,59.40
2022-09-30T03:46:19.345Z,59.40
2022-09-30T03:47:59.625Z,59.30
2022-09-30T03:49:41.018Z,59.40
2022-09-30T03:51:16.099Z,59.30
2022-09-30T03:52:49.984Z,59.30
2022-09-30T03:54:24.766Z,59.30
2022-09-30T03:55:58.448Z,59.30
2022-09-30T03:57:32.178Z,59.30
2022-09-30T03:59:06.472Z,59.40
2022-09-30T04:00:44.172Z,59.50
2022-09-30T04:02:17.845Z,59.50
2022-09-30T04:03:52.757Z,59.60
2022-09-30T04:05:26.215Z,59.70
2022-09-30T04:06:59.419Z,59.70
2022-09-30T04:08:33.994Z,59.70
2022-09-30T04:10:10.258Z,59.80
2022-09-30T04:11:43.884Z,59.80
2022-09-30T04:13:16.158Z,59.80
2022-09-30T04:14:49.468Z,59.60
2022-09-30T04:16:22.056Z,59.60
2022-09-30T04:17:55.647Z,59.60
2022-09-30T04:19:28.907Z,59.50
2022-09-30T04:21:05.738Z,59.50
2022-09-30T04:22:39.236Z,59.50
2022-09-30T04:24:12.459Z,59.40
2022-09-30T04:25:53.909Z,59.40
2022-09-30T04:27:27.346Z,59.40
2022-09-30T04:29:00.678Z,59.40
2022-09-30T04:30:33.942Z,59.50
2022-09-30T04:32:07.805Z,59.60
2022-09-30T04:33:40.858Z,59.50
2022-09-30T04:35:14.647Z,59.40
2022-09-30T04:36:47.990Z,59.40
2022-09-30T04:38:21.687Z,59.50
2022-09-30T04:39:55.456Z,59.50
2022-09-30T04:41:32.465Z,59.60
2022-09-30T04:43:06.107Z,59.70
2022-09-30T04:44:39.424Z,59.80
2022-09-30T04:46:12.900Z,59.80
2022-09-30T04:47:46.571Z,59.80
2022-09-30T04:49:20.431Z,59.80
2022-09-30T04:50:54.077Z,59.70
2022-09-30T04:52:27.578Z,59.70
2022-09-30T04:54:01.400Z,59.70
2022-09-30T04:55:35.059Z,59.70
2022-09-30T04:57:10.519Z,59.80
2022-09-30T04:58:43.963Z,59.90
2022-09-30T05:00:17.894Z,60.00
2022-09-30T05:01:51.085Z,60.10
2022-09-30T05:03:24.489Z,60.30
2022-09-30T05:04:57.747Z,60.30
2022-09-30T05:06:30.038Z,60.40
2022-09-30T05:08:05.110Z,60.40
2022-09-30T05:09:38.671Z,60.50
2022-09-30T05:11:18.425Z,60.50
2022-09-30T05:12:54.449Z,60.80
2022-09-30T05:14:28.233Z,60.60
2022-09-30T05:16:02.526Z,60.50
2022-09-30T05:17:36.501Z,61.30
2022-09-30T05:19:10.007Z,60.30
2022-09-30T05:20:42.763Z,60.20
2022-09-30T05:22:16.480Z,60.20
2022-09-30T05:23:50.311Z,60.20
2022-09-30T05:25:24.630Z,60.20
2022-09-30T05:26:58.055Z,60.20
2022-09-30T05:28:34.018Z,60.10
2022-09-30T05:30:10.892Z,60.10
2022-09-30T05:31:44.366Z,59.90
2022-09-30T05:33:17.063Z,59.90
2022-09-30T05:34:50.310Z,59.80
2022-09-30T05:36:23.878Z,59.80
2022-09-30T05:37:56.123Z,59.80
2022-09-30T05:39:29.640Z,59.90
2022-09-30T05:41:11.201Z,60.00
2022-09-30T05:42:47.161Z,60.10
2022-09-30T05:44:21.800Z,60.00
2022-09-30T05:45:57.055Z,60.10
2022-09-30T05:47:30.278Z,60.20
2022-09-30T05:49:03.580Z,60.30
2022-09-30T05:50:37.466Z,60.40
2022-09-30T05:52:11.899Z,60.50
2022-09-30T05:53:45.194Z,60.50
2022-09-30T05:55:20.295Z,60.60
2022-09-30T05:56:53.638Z,60.70
2022-09-30T05:58:27.319Z,60.70
2022-09-30T06:00:02.880Z,60.80
2022-09-30T06:01:58.810Z,60.80
2022-09-30T06:03:32.214Z,60.70
2022-09-30T06:05:06.147Z,60.60
2022-09-30T06:06:39.668Z,60.70
2022-09-30T06:08:13.934Z,60.70
2022-09-30T06:09:47.848Z,60.80
2022-09-30T06:11:24.924Z,60.90
2022-09-30T06:13:01.088Z,61.00
2022-09-30T06:14:34.924Z,61.10
2022-09-30T06:16:09.871Z,61.20
2022-09-30T06:17:43.959Z,61.30
2022-09-30T06:19:17.458Z,61.50
2022-09-30T06:20:50.705Z,61.50
2022-09-30T06:22:24.656Z,61.60
2022-09-30T06:23:58.108Z,61.70
2022-09-30T06:25:32.610Z,61.70
2022-09-30T06:27:06.164Z,61.90
2022-09-30T06:28:40.906Z,61.80
2022-09-30T06:30:14.443Z,61.90
2022-09-30T06:31:48.474Z,61.80
2022-09-30T06:33:23.671Z,61.80
2022-09-30T06:34:57.304Z,61.90
2022-09-30T06:36:32.054Z,61.80
2022-09-30T06:38:05.384Z,61.70
2022-09-30T06:39:38.652Z,62.00
2022-09-30T06:41:12.173Z,62.10
2022-09-30T06:42:46.005Z,62.10
2022-09-30T06:44:19.341Z,62.10
2022-09-30T06:45:54.127Z,62.00
2022-09-30T06:47:29.746Z,62.00
2022-09-30T06:49:13.079Z,62.10
2022-09-30T06:50:56.777Z,62.20
2022-09-30T06:52:36.087Z,62.20
2022-09-30T06:54:09.997Z,62.20
2022-09-30T06:55:43.523Z,62.20
2022-09-30T06:57:22.224Z,62.30
2022-09-30T06:58:57.101Z,62.40
2022-09-30T07:00:30.421Z,62.40
2022-09-30T07:02:03.720Z,62.40
2022-09-30T07:03:37.737Z,62.30
2022-09-30T07:05:13.252Z,62.40
2022-09-30T07:06:47.359Z,62.50
2022-09-30T07:08:20.867Z,62.50
2022-09-30T07:09:59.450Z,62.60
2022-09-30T07:11:33.269Z,62.70
2022-09-30T07:13:06.776Z,62.80
2022-09-30T07:14:40.111Z,62.90
2022-09-30T07:16:14.506Z,62.30
2022-09-30T07:17:52.883Z,63.10
2022-09-30T07:19:26.144Z,63.50
2022-09-30T07:21:00.823Z,63.40
2022-09-30T07:22:34.537Z,63.40
2022-09-30T07:24:09.225Z,63.50
2022-09-30T07:25:54.216Z,63.50
2022-09-30T07:27:31.583Z,63.80
2022-09-30T07:29:07.154Z,64.00
2022-09-30T07:30:44.112Z,64.30
2022-09-30T07:32:19.421Z,64.60
2022-09-30T07:33:54.475Z,64.70
2022-09-30T07:35:30.490Z,64.80
2022-09-30T07:37:05.893Z,64.80
2022-09-30T07:38:43.224Z,64.90
2022-09-30T07:40:16.547Z,65.20
2022-09-30T07:41:50.039Z,65.50
2022-09-30T07:43:23.734Z,65.90
2022-09-30T07:44:57.203Z,66.10
2022-09-30T07:46:33.606Z,66.00
2022-09-30T07:48:26.904Z,66.20
2022-09-30T07:50:00.397Z,66.30
2022-09-30T07:51:38.428Z,66.40
2022-09-30T07:53:13.044Z,66.50
2022-09-30T07:54:50.442Z,66.30
2022-09-30T07:56:27.319Z,66.50
2022-09-30T07:58:01.455Z,66.70
2022-09-30T07:59:38.469Z,66.90
2022-09-30T08:01:12.342Z,67.40
2022-09-30T08:02:45.684Z,67.50
2022-09-30T08:04:21.834Z,67.80
2022-09-30T08:05:55.491Z,68.10
2022-09-30T08:07:29.263Z,68.40
2022-09-30T08:09:05.211Z,68.50
2022-09-30T08:10:38.581Z,68.70
2022-09-30T08:12:12.040Z,68.80
2022-09-30T08:13:45.459Z,68.80
2022-09-30T08:15:18.832Z,68.80
2022-09-30T08:16:53.158Z,68.80
2022-09-30T08:18:27.550Z,69.20
2022-09-30T08:20:01.212Z,69.40
2022-09-30T08:21:34.536Z,69.40
2022-09-30T08:23:08.459Z,69.40
2022-09-30T08:24:43.066Z,68.50
2022-09-30T08:26:17.737Z,69.00
2022-09-30T08:27:51.674Z,69.10
2022-09-30T08:29:50.029Z,69.00
2022-09-30T08:31:21.517Z,69.10
2022-09-30T08:32:55.069Z,69.10
2022-09-30T08:34:33.715Z,69.20
2022-09-30T08:36:10.202Z,69.20
2022-09-30T08:37:43.979Z,69.40
2022-09-30T08:39:17.420Z,69.30
2022-09-30T08:41:10.348Z,69.30
2022-09-30T08:43:14.543Z,69.30
2022-09-30T08:44:50.390Z,69.30
2022-09-30T08:46:41.223Z,69.30
2022-09-30T08:48:37.368Z,69.40
2022-09-30T08:50:24.553Z,69.50
2022-09-30T08:52:02.350Z,69.40
2022-09-30T08:53:42.576Z,69.40
2022-09-30T08:55:22.744Z,69.50
2022-09-30T08:56:58.675Z,69.80
2022-09-30T08:58:35.071Z,69.70
2022-09-30T09:00:16.032Z,69.60
2022-09-30T09:01:56.471Z,69.60
2022-09-30T09:03:34.010Z,69.70
2022-09-30T09:05:12.528Z,69.60
2022-09-30T09:06:57.360Z,69.60
2022-09-30T09:08:51.742Z,69.70
2022-09-30T09:10:38.004Z,69.70
2022-09-30T09:12:31.133Z,69.60
2022-09-30T09:14:19.816Z,69.20
2022-09-30T09:16:09.726Z,69.10
2022-09-30T09:18:23.169Z,69.20
2022-09-30T09:20:12.618Z,69.50
2022-09-30T09:21:57.125Z,69.00
2022-09-30T09:23:34.243Z,68.60
2022-09-30T09:25:14.002Z,68.60
2022-09-30T09:26:49.260Z,68.40
2022-09-30T09:28:37.070Z,68.00
2022-09-30T09:30:14.499Z,66.80
2022-09-30T09:31:48.886Z,66.50
2022-09-30T09:33:30.949Z,65.60
2022-09-30T09:35:15.497Z,64.40
2022-09-30T09:37:06.211Z,63.20
2022-09-30T09:39:01.403Z,62.20
2022-09-30T09:40:57.084Z,61.50
2022-09-30T09:42:56.022Z,62.00
2022-09-30T09:44:39.666Z,61.70
2022-09-30T09:46:24.690Z,60.70
2022-09-30T09:47:59.568Z,59.90
2022-09-30T09:49:35.963Z,59.90
2022-09-30T09:51:22.609Z,59.70
2022-09-30T09:53:22.000Z,59.50
2022-09-30T09:54:56.766Z,58.60
2022-09-30T09:56:33.310Z,59.10
2022-09-30T09:58:11.112Z,58.60
2022-09-30T10:01:34.493Z,57.60
2022-09-30T10:03:18.586Z,58.10
2022-09-30T10:04:59.900Z,57.40
2022-09-30T10:06:46.726Z,57.50
2022-09-30T10:08:23.848Z,56.40
2022-09-30T10:10:23.496Z,56.50
2022-09-30T10:12:32.128Z,55.40
2022-09-30T10:14:05.401Z,55.10
2022-09-30T10:15:44.237Z,55.30
2022-09-30T10:17:25.648Z,55.00
2022-09-30T10:19:00.351Z,54.50
2022-09-30T10:20:37.855Z,54.10
2022-09-30T10:22:30.584Z,53.90
2022-09-30T10:24:27.260Z,53.90
2022-09-30T10:26:07.944Z,53.30
2022-09-30T10:27:52.209Z,53.80
2022-09-30T10:29:31.803Z,53.30
2022-09-30T10:31:14.321Z,53.00
2022-09-30T10:32:47.720Z,53.20
2022-09-30T10:34:29.510Z,53.20
2022-09-30T10:36:12.537Z,52.30
2022-09-30T10:37:54.381Z,51.80
2022-09-30T10:39:31.086Z,51.30
2022-09-30T10:41:06.968Z,51.50
2022-09-30T10:42:42.831Z,51.60
2022-09-30T10:44:21.857Z,51.50
2022-09-30T10:46:20.778Z,51.00
2022-09-30T10:47:55.078Z,50.80
2022-09-30T10:49:36.734Z,50.10
2022-09-30T10:51:26.040Z,49.90
2022-09-30T10:53:05.573Z,49.70
2022-09-30T10:54:55.623Z,50.20
2022-09-30T10:56:46.375Z,48.60
2022-09-30T10:58:40.618Z,48.30
2022-09-30T11:00:21.767Z,47.90
2022-09-30T11:02:05.232Z,48.60
2022-09-30T11:03:57.516Z,47.90
2022-09-30T11:05:37.003Z,46.60
2022-09-30T11:07:22.734Z,47.20
2022-09-30T11:09:04.371Z,46.70
2022-09-30T11:10:47.126Z,47.40
2022-09-30T11:12:30.169Z,46.90
2022-09-30T11:14:20.457Z,47.10
2022-09-30T11:16:04.519Z,47.30
2022-09-30T11:17:49.579Z,47.50
2022-09-30T11:19:32.194Z,47.20
2022-09-30T11:21:13.828Z,47.30
2022-09-30T11:22:57.575Z,47.00
2022-09-30T11:24:40.344Z,46.20
2022-09-30T11:26:27.287Z,46.60
2022-09-30T11:28:26.764Z,46.60
2022-09-30T11:30:11.601Z,46.10
2022-09-30T11:31:57.382Z,46.10
2022-09-30T11:33:48.448Z,45.80
2022-09-30T11:35:44.972Z,45.60
2022-09-30T11:37:33.320Z,45.20
2022-09-30T11:39:49.630Z,45.20
2022-09-30T11:41:29.782Z,44.50
2022-09-30T11:43:31.168Z,45.00
2022-09-30T11:45:22.841Z,44.60
2022-09-30T11:47:16.179Z,44.40
2022-09-30T11:49:19.159Z,44.10
2022-09-30T11:51:09.320Z,44.70
2022-09-30T11:52:57.689Z,44.70
2022-09-30T11:54:53.988Z,44.40
2022-09-30T11:56:43.132Z,43.70
2022-09-30T11:58:40.530Z,43.40
2022-09-30T12:00:18.797Z,44.10
2022-09-30T12:01:56.631Z,44.10
2022-09-30T12:03:39.378Z,44.80
2022-09-30T12:05:21.075Z,43.90
2022-09-30T12:07:00.207Z,43.30
2022-09-30T12:08:41.891Z,42.90
2022-09-30T12:10:24.214Z,43.10
2022-09-30T12:12:03.238Z,43.10
2022-09-30T12:13:43.448Z,43.20
2022-09-30T12:15:21.355Z,42.80
2022-09-30T12:16:57.644Z,42.80
2022-09-30T12:18:39.249Z,43.10
2022-09-30T12:20:26.118Z,42.70
2022-09-30T12:22:12.212Z,43.10
2022-09-30T12:23:55.931Z,43.10
2022-09-30T12:25:37.934Z,43.30
2022-09-30T12:27:20.968Z,43.20
2022-09-30T12:29:19.387Z,43.10
2022-09-30T12:31:03.914Z,43.30
2022-09-30T12:33:26.519Z,43.60
2022-09-30T12:35:21.347Z,43.40
2022-09-30T12:37:27.460Z,43.60
2022-09-30T12:40:11.403Z,43.60
2022-09-30T12:42:17.884Z,44.70
2022-09-30T12:44:49.123Z,44.40
2022-09-30T12:46:45.243Z,43.30
2022-09-30T12:48:24.530Z,43.30
2022-09-30T12:50:04.063Z,43.10
2022-09-30T12:51:44.232Z,42.90
2022-09-30T12:53:25.232Z,42.80
2022-09-30T12:55:03.511Z,43.10
2022-09-30T12:56:39.135Z,43.50
2022-09-30T12:58:29.808Z,43.70
2022-09-30T13:00:16.256Z,42.60
2022-09-30T13:01:50.344Z,43.60
2022-09-30T13:03:26.507Z,43.00
2022-09-30T13:05:55.005Z,43.00
2022-09-30T13:07:28.363Z,42.20
2022-09-30T13:09:22.326Z,42.60
2022-09-30T13:11:00.572Z,42.00
2022-09-30T13:12:46.615Z,42.40
2022-09-30T13:14:35.782Z,41.50
2022-09-30T13:16:11.323Z,41.50
2022-09-30T13:17:45.791Z,41.40
2022-09-30T13:19:22.336Z,41.50
2022-09-30T13:20:58.743Z,41.20
2022-09-30T13:22:58.843Z,41.40
2022-09-30T13:25:13.520Z,40.50
2022-09-30T13:26:50.892Z,40.90
2022-09-30T13:28:32.163Z,41.90
2022-09-30T13:30:37.732Z,40.80
2022-09-30T13:32:12.195Z,40.70
2022-09-30T13:33:48.631Z,41.90
2022-09-30T13:35:33.899Z,41.00
2022-09-30T13:37:42.898Z,40.30
2022-09-30T13:39:24.198Z,40.30
2022-09-30T13:41:07.308Z,40.10
2022-09-30T13:42:51.258Z,40.00
2022-09-30T13:44:35.055Z,40.70
2022-09-30T13:46:19.085Z,40.70
2022-09-30T13:48:10.853Z,41.30
2022-09-30T13:49:57.217Z,40.50
2022-09-30T13:51:34.076Z,40.70
2022-09-30T13:53:16.751Z,41.20
2022-09-30T13:54:52.219Z,41.20
2022-09-30T13:56:30.917Z,41.90
2022-09-30T13:58:27.842Z,40.60
2022-09-30T14:00:09.428Z,40.30
2022-09-30T14:02:38.359Z,40.80
2022-09-30T14:04:56.816Z,40.00
2022-09-30T14:06:46.830Z,39.60
2022-09-30T14:09:08.380Z,39.80
2022-09-30T14:11:03.506Z,39.40
2022-09-30T14:12:54.951Z,40.00
2022-09-30T14:15:12.873Z,39.40
2022-09-30T14:17:15.088Z,39.40
2022-09-30T14:19:22.164Z,39.80
2022-09-30T14:21:16.540Z,39.60
2022-09-30T14:22:50.426Z,40.50
2022-09-30T14:24:27.829Z,41.30
2022-09-30T14:26:23.753Z,40.50
2022-09-30T14:28:05.298Z,40.10
2022-09-30T14:29:58.572Z,40.20
2022-09-30T14:31:33.926Z,40.20
2022-09-30T14:33:21.787Z,40.50
2022-09-30T14:34:56.433Z,40.50
2022-09-30T14:36:30.430Z,40.60
2022-09-30T14:38:14.272Z,40.70
2022-09-30T14:39:49.895Z,40.90
2022-09-30T14:41:25.585Z,41.10
2022-09-30T14:43:03.223Z,41.00
2022-09-30T14:44:39.533Z,40.80
2022-09-30T14:46:27.449Z,41.10
2022-09-30T14:48:08.101Z,41.20
2022-09-30T14:49:43.962Z,41.20
2022-09-30T14:51:23.713Z,41.10
2022-09-30T14:52:58.714Z,41.00
2022-09-30T14:54:34.596Z,41.10
2022-09-30T14:56:23.582Z,41.00
2022-09-30T14:58:21.636Z,40.80
2022-09-30T15:00:28.955Z,40.90
2022-09-30T15:02:13.964Z,41.00
2022-09-30T15:03:53.226Z,41.90
2022-09-30T15:05:29.594Z,41.70
2022-09-30T15:07:07.168Z,41.50
2022-09-30T15:08:41.344Z,42.00
2022-09-30T15:10:22.226Z,42.10
2022-09-30T15:11:59.127Z,41.80
2022-09-30T15:13:34.616Z,42.10
2022-09-30T15:15:34.451Z,41.70
2022-09-30T15:17:20.244Z,41.70
2022-09-30T15:18:54.454Z,41.30
2022-09-30T15:20:34.467Z,42.00
2022-09-30T15:22:10.786Z,42.00
2022-09-30T15:23:51.450Z,42.90
2022-09-30T15:25:24.651Z,43.40
2022-09-30T15:26:59.201Z,43.00
2022-09-30T15:28:34.912Z,42.90
2022-09-30T15:30:28.981Z,43.10
2022-09-30T15:32:22.875Z,43.10
2022-09-30T15:34:13.903Z,42.50
2022-09-30T15:35:53.334Z,43.40
2022-09-30T15:37:33.513Z,44.10
2022-09-30T15:39:20.678Z,44.30
2022-09-30T15:41:00.749Z,44.60
2022-09-30T15:42:39.552Z,44.60
2022-09-30T15:44:20.419Z,44.60
2022-09-30T15:45:58.165Z,44.90
2022-09-30T15:47:31.995Z,45.10
2022-09-30T15:49:31.771Z,45.00
2022-09-30T15:51:35.389Z,45.30
2022-09-30T15:53:24.183Z,45.10
2022-09-30T15:54:59.379Z,45.40
2022-09-30T15:56:36.823Z,45.80
2022-09-30T15:58:37.557Z,46.20
2022-09-30T16:00:39.480Z,46.70
2022-09-30T16:02:14.354Z,47.00
2022-09-30T16:03:54.951Z,46.70
2022-09-30T16:05:28.917Z,47.10
2022-09-30T16:07:11.171Z,47.00
2022-09-30T16:08:49.722Z,47.40
2022-09-30T16:10:24.031Z,47.50
2022-09-30T16:12:08.709Z,47.50
2022-09-30T16:13:45.223Z,48.00
2022-09-30T16:15:19.132Z,48.00
2022-09-30T16:16:57.252Z,48.10
2022-09-30T16:18:34.798Z,48.30
2022-09-30T16:20:23.675Z,48.40
2022-09-30T16:21:58.970Z,48.80
2022-09-30T16:23:38.938Z,48.60
2022-09-30T16:25:20.519Z,48.80
2022-09-30T16:26:55.884Z,48.90
2022-09-30T16:28:29.568Z,49.10
2022-09-30T16:30:04.971Z,49.30
2022-09-30T16:31:39.029Z,49.40
2022-09-30T16:33:16.384Z,49.50
2022-09-30T16:34:51.914Z,49.70
2022-09-30T16:36:30.282Z,49.70
2022-09-30T16:38:13.288Z,49.90
2022-09-30T16:39:45.813Z,50.20
2022-09-30T16:41:26.596Z,50.30
2022-09-30T16:43:04.367Z,50.40
2022-09-30T16:44:48.803Z,50.60
2022-09-30T16:46:27.552Z,50.70
2022-09-30T16:48:03.872Z,51.10
2022-09-30T16:49:39.654Z,51.10
2022-09-30T16:51:24.613Z,51.20
2022-09-30T16:53:01.564Z,51.30
2022-09-30T16:54:35.655Z,51.50
2022-09-30T16:56:17.275Z,51.60
2022-09-30T16:57:51.274Z,51.90
2022-09-30T16:59:27.832Z,51.90
2022-09-30T17:01:02.716Z,51.80
2022-09-30T17:02:40.930Z,52.00
2022-09-30T17:04:18.535Z,52.20
2022-09-30T17:05:53.758Z,52.40
2022-09-30T17:07:44.097Z,52.30
2022-09-30T17:09:22.751Z,52.40
2022-09-30T17:11:05.359Z,52.60
2022-09-30T17:12:41.672Z,52.90
2022-09-30T17:14:17.670Z,52.70
2022-09-30T17:16:01.784Z,52.70
2022-09-30T17:17:37.316Z,52.90
2022-09-30T17:19:17.467Z,52.90
2022-09-30T17:20:54.586Z,53.00
2022-09-30T17:22:29.693Z,53.00
2022-09-30T17:24:04.537Z,53.20
2022-09-30T17:25:42.371Z,53.20
2022-09-30T17:27:18.096Z,53.40
2022-09-30T17:28:51.568Z,53.40
2022-09-30T17:30:24.861Z,54.00
2022-09-30T17:32:04.414Z,53.60
2022-09-30T17:33:42.329Z,53.80
2022-09-30T17:35:16.651Z,53.90
2022-09-30T17:36:52.204Z,53.80
2022-09-30T17:38:25.824Z,53.80
2022-09-30T17:39:59.114Z,53.90
2022-09-30T17:41:50.138Z,53.80
2022-09-30T17:43:23.534Z,54.20
2022-09-30T17:44:57.448Z,53.80
2022-09-30T17:46:43.534Z,53.90
2022-09-30T17:48:19.212Z,53.90
2022-09-30T17:49:52.777Z,53.80
2022-09-30T17:51:26.179Z,53.80
2022-09-30T17:53:02.343Z,53.70
2022-09-30T17:54:35.976Z,54.40
2022-09-30T17:56:19.332Z,53.70
2022-09-30T17:57:55.712Z,53.70
2022-09-30T17:59:30.096Z,53.60
2022-09-30T18:01:08.024Z,53.70
2022-09-30T18:02:44.693Z,53.70
2022-09-30T18:04:19.562Z,53.70
2022-09-30T18:05:59.167Z,53.70
2022-09-30T18:07:32.820Z,54.00
2022-09-30T18:09:07.935Z,53.90
2022-09-30T18:10:42.191Z,54.00
2022-09-30T18:12:16.124Z,54.00
2022-09-30T18:13:57.851Z,54.00
2022-09-30T18:15:31.768Z,54.10
2022-09-30T18:17:07.378Z,54.10
2022-09-30T18:18:41.069Z,54.20
2022-09-30T18:20:15.439Z,54.20
2022-09-30T18:21:49.238Z,54.40
2022-09-30T18:23:22.759Z,54.40
2022-09-30T18:25:15.235Z,54.40
2022-09-30T18:26:48.559Z,54.40
2022-09-30T18:28:22.111Z,54.40
2022-09-30T18:29:55.651Z,54.50
2022-09-30T18:31:37.462Z,54.60
2022-09-30T18:33:12.259Z,54.60
2022-09-30T18:34:45.677Z,54.70
2022-09-30T18:36:19.060Z,54.70
2022-09-30T18:37:54.410Z,54.70
2022-09-30T18:39:27.726Z,54.70
2022-09-30T18:41:02.676Z,54.80
2022-09-30T18:42:37.990Z,54.70
2022-09-30T18:44:11.982Z,54.80
2022-09-30T18:45:56.110Z,54.80
2022-09-30T18:47:30.301Z,54.90
2022-09-30T18:49:03.943Z,54.80
2022-09-30T18:50:37.365Z,54.80
2022-09-30T18:52:11.123Z,54.90
2022-09-30T18:53:44.649Z,55.00
2022-09-30T18:55:18.714Z,55.00
2022-09-30T18:56:53.477Z,55.00
2022-09-30T18:58:27.618Z,55.00
2022-09-30T19:00:02.177Z,55.00
2022-09-30T19:01:36.649Z,55.00
2022-09-30T19:03:14.012Z,55.10
2022-09-30T19:04:48.580Z,55.10
2022-09-30T19:06:22.624Z,55.10
2022-09-30T19:07:57.319Z,55.30
2022-09-30T19:09:30.759Z,55.30
2022-09-30T19:11:16.697Z,55.30
2022-09-30T19:12:52.130Z,55.50
2022-09-30T19:14:25.540Z,55.50
2022-09-30T19:16:05.330Z,55.40
2022-09-30T19:17:39.039Z,55.60
2022-09-30T19:19:12.688Z,55.60
2022-09-30T19:20:46.112Z,55.60
2022-09-30T19:22:20.232Z,55.60
2022-09-30T19:23:58.279Z,55.70
2022-09-30T19:25:31.855Z,55.70
2022-09-30T19:27:06.663Z,55.80
2022-09-30T19:28:41.980Z,55.90
2022-09-30T19:30:15.858Z,55.80
2022-09-30T19:31:49.312Z,55.90
2022-09-30T19:33:25.191Z,56.00
2022-09-30T19:35:05.095Z,56.10
2022-09-30T19:36:50.113Z,56.00
2022-09-30T19:38:35.106Z,56.10
2022-09-30T19:40:20.793Z,56.00
2022-09-30T19:42:00.337Z,56.00
2022-09-30T19:43:41.038Z,56.10
2022-09-30T19:45:17.407Z,56.00
2022-09-30T19:46:54.768Z,56.10
2022-09-30T19:48:29.718Z,56.10
2022-09-30T19:50:03.541Z,56.10
2022-09-30T19:51:36.808Z,56.20
2022-09-30T19:53:11.154Z,56.20
2022-09-30T19:54:47.284Z,56.30
2022-09-30T19:56:23.115Z,56.40
2022-09-30T19:57:56.352Z,56.30
2022-09-30T19:59:30.183Z,56.30
2022-09-30T20:01:06.785Z,56.20
2022-09-30T20:02:40.246Z,56.40
2022-09-30T20:04:16.970Z,56.30
2022-09-30T20:05:50.777Z,56.50
2022-09-30T20:07:24.133Z,56.50
2022-09-30T20:09:00.888Z,56.60
2022-09-30T20:10:34.775Z,56.70
2022-09-30T20:12:08.104Z,56.80
2022-09-30T20:13:43.096Z,56.80
2022-09-30T20:15:34.616Z,57.00
2022-09-30T20:17:09.586Z,57.00
2022-09-30T20:18:44.860Z,57.10
2022-09-30T20:20:37.393Z,57.10
2022-09-30T20:22:11.326Z,57.20
2022-09-30T20:23:45.826Z,57.10
2022-09-30T20:25:19.250Z,57.10
2022-09-30T20:26:53.044Z,57.30
2022-09-30T20:28:26.785Z,57.40
2022-09-30T20:30:00.413Z,57.40
2022-09-30T20:31:33.838Z,57.50
2022-09-30T20:33:08.819Z,57.50
2022-09-30T20:34:42.220Z,57.60
2022-09-30T20:36:16.231Z,57.60
2022-09-30T20:37:50.059Z,57.70
2022-09-30T20:39:24.052Z,57.80
2022-09-30T20:40:58.160Z,57.90
2022-09-30T20:42:32.782Z,57.90
2022-09-30T20:44:08.551Z,57.90
2022-09-30T20:45:42.183Z,58.00
2022-09-30T20:47:15.594Z,58.10
2022-09-30T20:48:51.226Z,58.20
2022-09-30T20:50:34.878Z,58.20
2022-09-30T20:52:09.250Z,58.30
2022-09-30T20:53:46.837Z,58.30
2022-09-30T20:55:21.149Z,58.40
2022-09-30T20:57:09.398Z,58.50
2022-09-30T20:58:46.550Z,58.60
2022-09-30T21:00:20.424Z,58.70
2022-09-30T21:01:53.916Z,58.70
2022-09-30T21:03:29.411Z,58.90
2022-09-30T21:05:04.839Z,59.00
2022-09-30T21:06:38.223Z,59.10
2022-09-30T21:08:11.951Z,59.10
2022-09-30T21:09:45.668Z,59.20
2022-09-30T21:11:20.257Z,59.20
2022-09-30T21:12:55.091Z,59.40
2022-09-30T21:14:28.798Z,59.50
2022-09-30T21:16:04.831Z,59.50
2022-09-30T21:17:38.169Z,59.80
2022-09-30T21:19:11.925Z,59.70
2022-09-30T21:20:57.535Z,59.80
2022-09-30T21:22:31.019Z,59.80
2022-09-30T21:24:04.825Z,59.80
2022-09-30T21:25:38.782Z,59.90
2022-09-30T21:27:12.119Z,60.00
2022-09-30T21:28:49.393Z,60.20
2022-09-30T21:30:23.367Z,60.30
2022-09-30T21:31:56.835Z,60.30
2022-09-30T21:33:29.310Z,60.40
2022-09-30T21:35:02.545Z,60.60
2022-09-30T21:36:38.783Z,60.60